createdAt,value
2017-11-27T00:00:16.824Z,80.14
2017-11-27T00:01:16.790Z,80.04
2017-11-27T00:03:14.252Z,79.95
2017-11-27T00:04:12.690Z,80.14
2017-11-27T00:06:08.668Z,80.24
2017-11-27T00:07:08.633Z,79.76
2017-11-27T00:09:05.560Z,80.04
2017-11-27T00:10:04.550Z,80.04
2017-11-27T00:12:00.502Z,79.76
2017-11-27T00:13:00.996Z,79.85
2017-11-27T00:14:55.942Z,79.38
2017-11-27T00:15:54.925Z,80.14
2017-11-27T00:17:51.380Z,79.76
2017-11-27T00:18:52.310Z,79.85
2017-11-27T00:20:47.299Z,80.04
2017-11-27T00:21:46.761Z,79.47
2017-11-27T00:23:41.236Z,79.76
2017-11-27T00:24:41.725Z,79.47
2017-11-27T00:26:37.111Z,79.38
2017-11-27T00:27:37.634Z,80.14
2017-11-27T00:29:34.063Z,79.19
2017-11-27T00:30:33.050Z,79.76
2017-11-27T00:32:31.006Z,79.57
2017-11-27T00:33:30.496Z,79.66
2017-11-27T00:35:23.914Z,79.38
2017-11-27T00:36:23.391Z,79.19
2017-11-27T00:38:19.819Z,79.57
2017-11-27T00:39:19.824Z,79.57
2017-11-27T00:41:14.242Z,79.38
2017-11-27T00:42:13.722Z,79.38
2017-11-27T00:44:10.654Z,80.14
2017-11-27T00:45:09.644Z,79.38
2017-11-27T00:47:04.088Z,79.28
2017-11-27T00:48:04.083Z,79.28
2017-11-27T00:49:59.539Z,79.10
2017-11-27T00:50:59.028Z,79.28
2017-11-27T00:52:54.964Z,79.19
2017-11-27T00:53:54.416Z,79.10
2017-11-27T00:55:50.364Z,78.72
2017-11-27T00:56:50.349Z,79.38
2017-11-27T00:58:46.316Z,79.47
2017-11-27T00:59:46.265Z,78.91
2017-11-27T01:01:43.714Z,78.91
2017-11-27T01:02:42.718Z,78.91
2017-11-27T01:04:37.146Z,78.53
2017-11-27T01:05:36.619Z,78.43
2017-11-27T01:07:33.591Z,78.43
2017-11-27T01:08:32.665Z,77.48
2017-11-27T01:10:28.596Z,78.24
2017-11-27T01:11:27.599Z,78.43
2017-11-27T01:13:23.037Z,78.62
2017-11-27T01:14:22.999Z,78.81
2017-11-27T01:16:17.943Z,78.72
2017-11-27T01:17:17.430Z,78.53
2017-11-27T01:19:13.884Z,78.43
2017-11-27T01:20:13.886Z,78.43
2017-11-27T01:22:09.809Z,78.43
2017-11-27T01:23:10.297Z,78.81
2017-11-27T01:25:06.761Z,78.53
2017-11-27T01:26:05.242Z,78.72
2017-11-27T01:28:01.684Z,79.00
2017-11-27T01:29:01.153Z,79.28
2017-11-27T01:30:54.625Z,80.14
2017-11-27T01:31:54.602Z,81.27
2017-11-27T01:33:49.047Z,82.98
2017-11-27T01:34:49.026Z,83.46
2017-11-27T01:36:43.489Z,84.12
2017-11-27T01:37:43.442Z,84.78
2017-11-27T01:39:39.409Z,85.74
2017-11-27T01:40:39.367Z,85.36
2017-11-27T01:42:35.274Z,86.02
2017-11-27T01:43:35.257Z,85.45
2017-11-27T01:45:31.177Z,85.93
2017-11-27T01:46:31.177Z,86.30
2017-11-27T01:48:27.640Z,86.55
2017-11-27T01:49:25.610Z,86.83
2017-11-27T01:51:20.061Z,86.35
2017-11-27T01:52:20.552Z,86.49
2017-11-27T01:54:14.471Z,86.93
2017-11-27T01:55:14.475Z,87.30
2017-11-27T01:57:10.404Z,86.74
2017-11-27T01:58:10.375Z,86.45
2017-11-27T02:00:07.307Z,86.49
2017-11-27T02:01:07.809Z,86.97
2017-11-27T02:02:59.676Z,86.30
2017-11-27T02:03:59.686Z,86.11
2017-11-27T02:05:56.131Z,86.49
2017-11-27T02:06:55.634Z,86.40
2017-11-27T02:08:51.542Z,85.83
2017-11-27T02:09:51.538Z,85.07
2017-11-27T02:11:47.485Z,84.98
2017-11-27T02:12:47.458Z,85.64
2017-11-27T02:14:44.410Z,84.98
2017-11-27T02:15:43.378Z,84.41
2017-11-27T02:17:40.330Z,84.31
2017-11-27T02:18:39.295Z,84.41
2017-11-27T02:20:35.252Z,84.69
2017-11-27T02:21:35.229Z,84.50
2017-11-27T02:23:31.211Z,84.69
2017-11-27T02:24:31.144Z,85.26
2017-11-27T02:26:27.608Z,84.69
2017-11-27T02:27:27.604Z,84.41
2017-11-27T02:29:22.015Z,83.94
2017-11-27T02:30:21.496Z,83.74
2017-11-27T02:32:17.953Z,84.03
2017-11-27T02:33:17.944Z,83.36
2017-11-27T02:35:13.333Z,83.08
2017-11-27T02:36:13.324Z,83.17
2017-11-27T02:38:09.289Z,82.79
2017-11-27T02:39:09.268Z,82.23
2017-11-27T02:41:03.718Z,82.42
2017-11-27T02:42:03.695Z,82.23
2017-11-27T02:43:59.657Z,82.23
2017-11-27T02:44:59.642Z,81.66
2017-11-27T02:46:54.064Z,82.04
2017-11-27T02:47:54.066Z,81.94
2017-11-27T02:49:49.995Z,81.75
2017-11-27T02:50:49.988Z,81.85
2017-11-27T02:52:45.434Z,81.94
2017-11-27T02:53:44.387Z,81.75
2017-11-27T02:55:40.823Z,81.37
2017-11-27T02:56:40.309Z,81.75
2017-11-27T02:58:36.248Z,81.27
2017-11-27T02:59:36.239Z,80.52
2017-11-27T03:01:32.210Z,81.18
2017-11-27T03:02:32.164Z,81.09
2017-11-27T03:04:26.634Z,80.62
2017-11-27T03:05:26.605Z,81.18
2017-11-27T03:07:20.052Z,80.43
2017-11-27T03:08:20.029Z,80.14
2017-11-27T03:10:16.487Z,79.95
2017-11-27T03:11:15.946Z,79.85
2017-11-27T03:13:10.906Z,79.85
2017-11-27T03:14:10.355Z,79.95
2017-11-27T03:16:06.776Z,80.14
2017-11-27T03:17:06.316Z,79.95
2017-11-27T03:19:00.715Z,79.76
2017-11-27T03:20:00.681Z,79.66
2017-11-27T03:21:54.644Z,79.38
2017-11-27T03:22:54.095Z,79.38
2017-11-27T03:24:49.065Z,79.76
2017-11-27T03:25:49.054Z,79.38
2017-11-27T03:27:44.447Z,79.85
2017-11-27T03:28:44.454Z,79.66
2017-11-27T03:30:42.917Z,79.38
2017-11-27T03:31:42.480Z,79.47
2017-11-27T03:33:36.938Z,80.04
2017-11-27T03:34:36.918Z,79.38
2017-11-27T03:36:31.371Z,79.57
2017-11-27T03:37:31.339Z,79.72
2017-11-27T03:39:27.244Z,79.76
2017-11-27T03:40:27.267Z,79.34
2017-11-27T03:42:23.173Z,79.38
2017-11-27T03:43:23.165Z,79.34
2017-11-27T03:45:17.566Z,79.82
2017-11-27T03:46:17.566Z,79.44
2017-11-27T03:48:13.527Z,79.53
2017-11-27T03:49:14.014Z,79.34
2017-11-27T03:51:09.472Z,79.34
2017-11-27T03:52:09.418Z,79.63
2017-11-27T03:54:05.333Z,79.44
2017-11-27T03:55:05.341Z,79.72
2017-11-27T03:57:02.281Z,79.72
2017-11-27T03:58:01.279Z,80.00
2017-11-27T03:59:57.244Z,79.44
2017-11-27T04:00:57.207Z,79.63
2017-11-27T04:02:53.639Z,80.00
2017-11-27T04:03:53.654Z,79.72
2017-11-27T04:05:49.033Z,79.91
2017-11-27T04:06:49.032Z,80.00
2017-11-27T04:08:43.990Z,79.82
2017-11-27T04:09:43.439Z,79.72
2017-11-27T04:11:39.888Z,79.82
2017-11-27T04:12:39.373Z,79.53
2017-11-27T04:14:35.846Z,80.00
2017-11-27T04:15:35.331Z,80.00
2017-11-27T04:17:29.753Z,79.91
2017-11-27T04:18:29.740Z,79.25
2017-11-27T04:20:26.190Z,80.00
2017-11-27T04:21:25.680Z,79.91
2017-11-27T04:23:23.123Z,79.25
2017-11-27T04:24:21.616Z,78.96
2017-11-27T04:26:17.553Z,79.63
2017-11-27T04:27:17.537Z,79.53
2017-11-27T04:29:13.482Z,79.53
2017-11-27T04:30:13.445Z,79.63
2017-11-27T04:32:08.399Z,79.34
2017-11-27T04:33:07.900Z,79.34
2017-11-27T04:35:04.344Z,79.15
2017-11-27T04:36:03.819Z,79.44
2017-11-27T04:38:00.780Z,79.53
2017-11-27T04:38:59.748Z,79.25
2017-11-27T04:40:56.211Z,79.44
2017-11-27T04:41:56.197Z,79.38
2017-11-27T04:43:51.615Z,78.81
2017-11-27T04:44:51.601Z,78.77
2017-11-27T04:46:49.572Z,79.15
2017-11-27T04:47:47.554Z,79.28
2017-11-27T04:49:43.517Z,79.47
2017-11-27T04:50:43.488Z,78.72
2017-11-27T04:52:40.439Z,78.43
2017-11-27T04:53:39.382Z,78.81
2017-11-27T04:55:35.816Z,78.24
2017-11-27T04:56:35.303Z,78.15
2017-11-27T04:58:31.750Z,78.24
2017-11-27T04:59:31.243Z,77.96
2017-11-27T05:01:27.199Z,77.48
2017-11-27T05:02:27.164Z,77.77
2017-11-27T05:04:23.110Z,77.39
2017-11-27T05:05:23.616Z,77.77
2017-11-27T05:07:19.033Z,77.67
2017-11-27T05:08:19.034Z,77.96
2017-11-27T05:10:14.978Z,77.11
2017-11-27T05:11:14.947Z,77.39
2017-11-27T05:13:09.399Z,77.20
2017-11-27T05:14:09.345Z,76.82
2017-11-27T05:16:06.803Z,76.92
2017-11-27T05:17:05.242Z,77.11
2017-11-27T05:19:01.162Z,76.82
2017-11-27T05:20:01.165Z,77.39
2017-11-27T05:21:57.131Z,76.73
2017-11-27T05:22:57.100Z,76.63
2017-11-27T05:24:53.043Z,76.82
2017-11-27T05:25:53.026Z,76.25
2017-11-27T05:27:48.944Z,76.25
2017-11-27T05:28:48.939Z,76.73
2017-11-27T05:30:45.410Z,76.92
2017-11-27T05:31:44.877Z,76.63
2017-11-27T05:33:39.817Z,76.34
2017-11-27T05:34:39.288Z,76.54
2017-11-27T05:36:35.242Z,76.73
2017-11-27T05:37:35.738Z,76.54
2017-11-27T05:39:32.669Z,76.34
2017-11-27T05:40:31.163Z,75.96
2017-11-27T05:42:27.159Z,76.34
2017-11-27T05:43:27.073Z,75.68
2017-11-27T05:45:23.503Z,75.87
2017-11-27T05:46:23.502Z,75.49
2017-11-27T05:48:18.901Z,75.31
2017-11-27T05:49:19.427Z,75.40
2017-11-27T05:51:14.843Z,75.49
2017-11-27T05:52:14.845Z,76.06
2017-11-27T05:54:11.789Z,76.06
2017-11-27T05:55:11.283Z,75.96
2017-11-27T05:57:07.225Z,75.91
2017-11-27T05:58:06.679Z,75.68
2017-11-27T06:00:03.130Z,75.62
2017-11-27T06:01:02.600Z,75.34
2017-11-27T06:02:58.583Z,75.62
2017-11-27T06:03:58.517Z,75.43
2017-11-27T06:05:54.611Z,75.34
2017-11-27T06:06:55.461Z,74.64
2017-11-27T06:09:02.512Z,74.96
2017-11-27T06:10:02.912Z,75.05
2017-11-27T06:11:56.639Z,75.43
2017-11-27T06:12:56.602Z,75.15
2017-11-27T06:14:51.084Z,75.34
2017-11-27T06:15:51.028Z,75.05
2017-11-27T06:17:46.955Z,74.87
2017-11-27T06:18:46.968Z,74.68
2017-11-27T06:20:42.874Z,74.68
2017-11-27T06:21:43.408Z,75.15
2017-11-27T06:23:43.375Z,74.96
2017-11-27T06:24:43.313Z,74.20
2017-11-27T06:26:37.791Z,74.39
2017-11-27T06:27:38.282Z,74.87
2017-11-27T06:29:34.195Z,74.87
2017-11-27T06:30:33.683Z,74.20
2017-11-27T06:32:29.587Z,75.24
2017-11-27T06:33:29.581Z,74.96
2017-11-27T06:35:23.552Z,74.96
2017-11-27T06:36:23.033Z,74.30
2017-11-27T06:38:18.972Z,74.49
2017-11-27T06:39:18.960Z,74.30
2017-11-27T06:41:15.420Z,75.24
2017-11-27T06:42:14.911Z,75.05
2017-11-27T06:44:10.826Z,74.49
2017-11-27T06:45:10.824Z,74.01
2017-11-27T06:47:07.292Z,74.20
2017-11-27T06:48:06.757Z,74.30
2017-11-27T06:50:03.207Z,74.58
2017-11-27T06:51:02.699Z,74.58
2017-11-27T06:52:58.658Z,74.01
2017-11-27T06:53:58.593Z,73.82
2017-11-27T06:55:56.052Z,73.92
2017-11-27T06:56:54.543Z,74.87
2017-11-27T06:58:50.974Z,74.30
2017-11-27T06:59:50.469Z,74.77
2017-11-27T07:01:46.443Z,75.05
2017-11-27T07:02:46.387Z,75.43
2017-11-27T07:04:41.349Z,75.53
2017-11-27T07:05:40.812Z,75.43
2017-11-27T07:07:35.248Z,75.95
2017-11-27T07:08:35.773Z,76.39
2017-11-27T07:10:32.193Z,76.42
2017-11-27T07:11:31.175Z,76.48
2017-11-27T07:13:28.627Z,76.20
2017-11-27T07:14:27.351Z,76.39
2017-11-27T07:16:23.792Z,76.29
2017-11-27T07:17:23.801Z,76.29
2017-11-27T07:19:19.208Z,76.86
2017-11-27T07:20:19.198Z,76.48
2017-11-27T07:22:13.163Z,76.86
2017-11-27T07:23:12.603Z,76.95
2017-11-27T07:25:08.588Z,77.14
2017-11-27T07:26:08.540Z,76.95
2017-11-27T07:28:02.117Z,77.75
2017-11-27T07:29:02.014Z,77.62
2017-11-27T07:30:55.428Z,77.43
2017-11-27T07:31:55.378Z,78.51
2017-11-27T07:33:49.866Z,78.85
2017-11-27T07:34:50.325Z,79.27
2017-11-27T07:36:45.818Z,79.42
2017-11-27T07:37:45.829Z,79.52
2017-11-27T07:39:41.766Z,79.36
2017-11-27T07:40:41.747Z,79.71
2017-11-27T07:42:36.694Z,79.36
2017-11-27T07:43:36.700Z,79.90
2017-11-27T07:45:32.101Z,79.84
2017-11-27T07:46:32.059Z,80.27
2017-11-27T07:48:26.505Z,80.32
2017-11-27T07:49:26.502Z,79.90
2017-11-27T07:51:22.472Z,80.37
2017-11-27T07:52:22.425Z,79.99
2017-11-27T07:54:18.395Z,80.37
2017-11-27T07:55:19.387Z,81.13
2017-11-27T07:57:11.842Z,81.23
2017-11-27T07:58:11.807Z,81.13
2017-11-27T08:00:09.766Z,81.79
2017-11-27T08:01:09.749Z,81.98
2017-11-27T08:03:04.685Z,82.08
2017-11-27T08:04:04.141Z,81.88
2017-11-27T08:06:00.110Z,81.79
2017-11-27T08:07:00.075Z,82.08
2017-11-27T08:08:56.051Z,81.88
2017-11-27T08:09:56.010Z,82.55
2017-11-27T08:11:53.955Z,82.36
2017-11-27T08:12:53.965Z,82.46
2017-11-27T08:14:48.914Z,82.74
2017-11-27T08:15:48.404Z,82.55
2017-11-27T08:17:44.856Z,82.27
2017-11-27T08:18:44.333Z,82.65
2017-11-27T08:20:42.258Z,83.50
2017-11-27T08:21:42.252Z,83.40
2017-11-27T08:23:37.277Z,83.12
2017-11-27T08:24:36.689Z,83.12
2017-11-27T08:26:33.137Z,83.59
2017-11-27T08:27:32.621Z,83.50
2017-11-27T08:29:29.057Z,83.97
2017-11-27T08:30:28.546Z,83.97
2017-11-27T08:32:24.508Z,84.36
2017-11-27T08:33:24.984Z,84.11
2017-11-27T08:35:21.383Z,84.30
2017-11-27T08:36:20.361Z,84.11
2017-11-27T08:38:16.239Z,83.97
2017-11-27T08:39:14.806Z,84.40
2017-11-27T08:41:11.250Z,84.30
2017-11-27T08:42:10.742Z,84.11
2017-11-27T08:44:05.179Z,84.30
2017-11-27T08:45:05.181Z,84.78
2017-11-27T08:47:01.618Z,85.06
2017-11-27T08:47:59.796Z,85.06
2017-11-27T08:49:56.270Z,85.06
2017-11-27T08:50:55.724Z,85.63
2017-11-27T08:52:51.621Z,84.78
2017-11-27T08:53:51.634Z,85.06
2017-11-27T08:55:46.088Z,84.97
2017-11-27T08:56:46.048Z,84.68
2017-11-27T08:58:44.042Z,84.87
2017-11-27T08:59:42.001Z,85.06
2017-11-27T09:01:37.962Z,84.11
2017-11-27T09:02:37.942Z,84.68
2017-11-27T09:04:35.867Z,85.16
2017-11-27T09:05:35.873Z,84.97
2017-11-27T09:07:31.825Z,84.21
2017-11-27T09:08:31.788Z,84.40
2017-11-27T09:10:27.756Z,83.36
2017-11-27T09:11:27.747Z,83.45
2017-11-27T09:13:22.229Z,83.83
2017-11-27T09:14:22.691Z,84.59
2017-11-27T09:16:15.609Z,84.40
2017-11-27T09:17:15.643Z,84.11
2017-11-27T09:19:09.567Z,84.68
2017-11-27T09:20:09.046Z,83.36
2017-11-27T09:22:03.484Z,84.30
2017-11-27T09:23:03.484Z,83.64
2017-11-27T09:24:57.445Z,83.45
2017-11-27T09:25:56.936Z,83.83
2017-11-27T09:27:50.336Z,83.73
2017-11-27T09:28:50.356Z,83.54
2017-11-27T09:30:44.805Z,83.07
2017-11-27T09:31:43.793Z,83.54
2017-11-27T09:33:37.226Z,83.16
2017-11-27T09:34:37.207Z,83.26
2017-11-27T09:36:30.624Z,83.45
2017-11-27T09:37:30.624Z,83.26
2017-11-27T09:39:26.067Z,82.50
2017-11-27T09:40:25.140Z,82.59
2017-11-27T09:42:18.598Z,82.12
2017-11-27T09:43:18.500Z,82.50
2017-11-27T09:45:12.942Z,82.59
2017-11-27T09:46:12.942Z,82.50
2017-11-27T09:48:07.422Z,82.03
2017-11-27T09:49:07.880Z,81.84
2017-11-27T09:51:04.320Z,83.26
2017-11-27T09:52:03.308Z,82.21
2017-11-27T09:53:56.774Z,82.35
2017-11-27T09:54:56.754Z,82.35
2017-11-27T09:56:50.150Z,81.87
2017-11-27T09:57:50.157Z,81.78
2017-11-27T09:59:44.585Z,81.21
2017-11-27T10:00:44.604Z,81.30
2017-11-27T10:02:37.975Z,81.68
2017-11-27T10:03:38.465Z,82.35
2017-11-27T10:05:31.408Z,81.78
2017-11-27T10:06:34.218Z,81.21
2017-11-27T10:08:33.408Z,81.87
2017-11-27T10:09:33.592Z,81.21
2017-11-27T10:11:47.681Z,81.78
2017-11-27T10:12:47.090Z,81.97
2017-11-27T10:14:48.741Z,81.78
2017-11-27T10:15:48.768Z,81.97
2017-11-27T10:17:51.244Z,81.97
2017-11-27T10:18:50.014Z,82.16
2017-11-27T10:20:56.519Z,82.07
2017-11-27T10:21:55.681Z,82.35
2017-11-27T10:23:57.075Z,82.16
2017-11-27T10:24:57.268Z,82.16
2017-11-27T10:26:58.291Z,82.73
2017-11-27T10:27:57.134Z,83.30
2017-11-27T10:30:02.751Z,82.54
2017-11-27T10:31:02.632Z,82.64
2017-11-27T10:33:03.964Z,83.68
2017-11-27T10:34:04.437Z,83.49
2017-11-27T10:36:05.017Z,83.30
2017-11-27T10:37:05.309Z,83.49
2017-11-27T10:39:10.450Z,83.49
2017-11-27T10:40:06.385Z,83.68
2017-11-27T10:42:07.009Z,83.49
2017-11-27T10:43:07.703Z,83.68
2017-11-27T10:45:09.937Z,83.39
2017-11-27T10:46:08.580Z,83.87
2017-11-27T10:48:11.802Z,83.78
2017-11-27T10:49:11.146Z,84.25
2017-11-27T10:51:10.730Z,84.34
2017-11-27T10:52:10.605Z,84.53
2017-11-27T10:54:11.384Z,83.11
2017-11-27T10:55:11.411Z,83.97
2017-11-27T10:57:11.410Z,84.53
2017-11-27T10:58:11.798Z,85.11
2017-11-27T11:00:11.851Z,85.20
2017-11-27T11:01:12.249Z,85.20
2017-11-27T11:03:14.121Z,85.58
2017-11-27T11:04:12.656Z,85.77
2017-11-27T11:06:14.156Z,86.53
2017-11-27T11:07:14.075Z,86.72
2017-11-27T11:09:14.363Z,86.72
2017-11-27T11:10:14.352Z,86.96
2017-11-27T11:12:14.862Z,87.15
2017-11-27T11:13:14.371Z,86.96
2017-11-27T11:15:15.260Z,87.91
2017-11-27T11:16:14.855Z,87.62
2017-11-27T11:18:17.298Z,87.62
2017-11-27T11:19:16.752Z,88.29
2017-11-27T11:21:17.669Z,88.39
2017-11-27T11:22:15.637Z,88.48
2017-11-27T11:24:16.247Z,88.76
2017-11-27T11:25:16.166Z,89.05
2017-11-27T11:27:33.700Z,90.00
2017-11-27T11:28:17.817Z,89.62
2017-11-27T11:30:18.057Z,88.95
2017-11-27T11:31:18.496Z,88.76
2017-11-27T11:33:19.442Z,89.24
2017-11-27T11:34:18.954Z,89.43
2017-11-27T11:36:24.376Z,89.33
2017-11-27T11:37:23.536Z,88.57
2017-11-27T11:39:24.067Z,88.86
2017-11-27T11:40:23.536Z,88.86
2017-11-27T11:42:27.459Z,89.14
2017-11-27T11:43:27.561Z,88.76
2017-11-27T11:45:28.040Z,89.43
2017-11-27T11:46:28.397Z,89.43
2017-11-27T11:48:31.085Z,88.95
2017-11-27T11:49:28.933Z,89.33
2017-11-27T11:51:34.420Z,89.24
2017-11-27T11:52:33.819Z,88.57
2017-11-27T11:54:33.876Z,88.48
2017-11-27T11:55:33.292Z,87.91
2017-11-27T11:57:32.266Z,88.48
2017-11-27T11:58:36.267Z,87.53
2017-11-27T12:00:31.716Z,88.76
2017-11-27T12:01:32.311Z,89.24
2017-11-27T12:03:33.769Z,88.86
2017-11-27T12:04:32.406Z,89.33
2017-11-27T12:06:38.648Z,88.01
2017-11-27T12:07:37.216Z,88.01
2017-11-27T12:09:36.005Z,87.34
2017-11-27T12:10:36.473Z,87.43
2017-11-27T12:12:38.114Z,88.48
2017-11-27T12:13:35.391Z,88.29
2017-11-27T12:15:39.314Z,87.82
2017-11-27T12:16:37.686Z,88.29
2017-11-27T12:18:38.863Z,88.95
2017-11-27T12:19:38.329Z,88.57
2017-11-27T12:21:38.290Z,88.01
2017-11-27T12:22:38.771Z,87.72
2017-11-27T12:24:38.679Z,87.91
2017-11-27T12:25:39.192Z,87.62
2017-11-27T12:27:39.195Z,88.76
2017-11-27T12:28:39.618Z,88.39
2017-11-27T12:30:37.296Z,88.95
2017-11-27T12:31:38.054Z,88.86
2017-11-27T12:33:37.595Z,88.01
2017-11-27T12:34:37.594Z,89.05
2017-11-27T12:36:38.069Z,88.57
2017-11-27T12:37:38.054Z,88.01
2017-11-27T12:39:34.085Z,88.39
2017-11-27T12:40:34.079Z,88.20
2017-11-27T12:42:34.410Z,87.34
2017-11-27T12:43:34.949Z,87.62
2017-11-27T12:45:36.857Z,88.10
2017-11-27T12:46:35.327Z,88.39
2017-11-27T12:48:33.863Z,87.62
2017-11-27T12:49:34.664Z,87.72
2017-11-27T12:51:34.331Z,87.72
2017-11-27T12:52:33.257Z,87.34
2017-11-27T12:54:33.903Z,87.24
2017-11-27T12:55:33.734Z,87.62
2017-11-27T12:57:32.260Z,88.20
2017-11-27T12:58:33.617Z,88.01
2017-11-27T13:00:32.616Z,88.29
2017-11-27T13:01:32.123Z,88.39
2017-11-27T13:03:33.125Z,87.91
2017-11-27T13:04:32.521Z,87.72
2017-11-27T13:06:33.457Z,88.39
2017-11-27T13:07:33.467Z,88.39
2017-11-27T13:09:33.416Z,88.29
2017-11-27T13:10:33.938Z,88.67
2017-11-27T13:12:33.829Z,88.01
2017-11-27T13:13:34.331Z,87.53
2017-11-27T13:15:34.734Z,88.39
2017-11-27T13:16:34.731Z,87.91
2017-11-27T13:18:34.678Z,88.57
2017-11-27T13:19:34.652Z,88.48
2017-11-27T13:21:35.822Z,88.57
2017-11-27T13:22:35.144Z,88.48
2017-11-27T13:24:33.150Z,89.14
2017-11-27T13:25:33.141Z,88.76
2017-11-27T13:27:35.009Z,88.76
2017-11-27T13:28:33.507Z,88.53
2017-11-27T13:30:29.484Z,88.57
2017-11-27T13:31:29.493Z,88.24
2017-11-27T13:33:29.900Z,88.39
2017-11-27T13:36:03.375Z,87.43
2017-11-27T13:36:50.292Z,88.01
2017-11-27T13:38:51.675Z,87.67
2017-11-27T13:39:50.660Z,87.38
2017-11-27T13:41:51.138Z,87.95
2017-11-27T13:42:52.746Z,87.76
2017-11-27T13:44:55.544Z,88.34
2017-11-27T13:45:51.551Z,88.34
2017-11-27T13:47:53.500Z,88.62
2017-11-27T13:48:52.564Z,88.53
2017-11-27T13:50:52.544Z,88.43
2017-11-27T13:51:54.000Z,88.62
2017-11-27T13:53:52.985Z,88.81
2017-11-27T13:54:55.385Z,89.00
2017-11-27T13:56:53.380Z,89.47
2017-11-27T13:57:53.854Z,89.00
2017-11-27T13:59:54.265Z,88.90
2017-11-27T14:00:54.300Z,88.90
2017-11-27T14:02:54.197Z,89.19
2017-11-27T14:03:54.204Z,89.28
2017-11-27T14:05:56.634Z,89.28
2017-11-27T14:06:54.609Z,88.90
2017-11-27T14:08:55.043Z,88.81
2017-11-27T14:09:55.033Z,89.00
2017-11-27T14:12:03.072Z,89.09
2017-11-27T14:13:01.545Z,89.19
2017-11-27T14:15:00.960Z,88.81
2017-11-27T14:16:00.915Z,89.47
2017-11-27T14:18:02.920Z,88.81
2017-11-27T14:19:01.335Z,89.95
2017-11-27T14:20:57.333Z,89.09
2017-11-27T14:21:57.387Z,89.19
2017-11-27T14:23:55.414Z,89.67
2017-11-27T14:24:57.242Z,89.76
2017-11-27T14:26:57.828Z,89.76
2017-11-27T14:27:56.177Z,89.95
2017-11-27T14:29:55.956Z,89.19
2017-11-27T14:30:54.599Z,89.95
2017-11-27T14:32:52.502Z,89.28
2017-11-27T14:33:52.031Z,89.09
2017-11-27T14:35:54.904Z,89.19
2017-11-27T14:36:53.961Z,89.38
2017-11-27T14:38:55.868Z,89.19
2017-11-27T14:39:53.824Z,89.19
2017-11-27T14:41:51.750Z,89.86
2017-11-27T14:42:51.745Z,89.28
2017-11-27T14:44:49.664Z,89.95
2017-11-27T14:45:49.666Z,89.57
2017-11-27T14:47:46.614Z,89.86
2017-11-27T14:48:45.618Z,90.05
2017-11-27T14:50:42.590Z,89.76
2017-11-27T14:51:41.759Z,89.86
2017-11-27T14:53:37.710Z,90.05
2017-11-27T14:54:37.684Z,89.47
2017-11-27T14:56:35.642Z,89.19
2017-11-27T14:57:35.605Z,89.57
2017-11-27T14:59:33.606Z,89.28
2017-11-27T15:00:33.559Z,89.38
2017-11-27T15:02:31.434Z,88.90
2017-11-27T15:03:31.994Z,88.81
2017-11-27T15:05:34.883Z,88.62
2017-11-27T15:06:31.874Z,88.81
2017-11-27T15:08:27.828Z,88.05
2017-11-27T15:09:28.330Z,88.34
2017-11-27T15:11:26.840Z,87.67
2017-11-27T15:12:25.889Z,88.43
2017-11-27T15:14:27.291Z,87.95
2017-11-27T15:15:28.296Z,88.71
2017-11-27T15:17:22.295Z,88.81
2017-11-27T15:18:22.765Z,88.43
2017-11-27T15:20:22.663Z,87.67
2017-11-27T15:21:22.705Z,87.48
2017-11-27T15:23:24.169Z,87.76
2017-11-27T15:24:23.106Z,88.43
2017-11-27T15:26:21.589Z,87.67
2017-11-27T15:27:21.634Z,87.38
2017-11-27T15:29:19.497Z,87.29
2017-11-27T15:30:19.137Z,87.57
2017-11-27T15:32:23.183Z,87.19
2017-11-27T15:33:24.051Z,87.10
2017-11-27T15:35:18.994Z,86.82
2017-11-27T15:36:18.965Z,86.34
2017-11-27T15:38:19.445Z,87.01
2017-11-27T15:39:19.514Z,86.72
2017-11-27T15:41:21.287Z,87.38
2017-11-27T15:42:19.859Z,87.57
2017-11-27T15:44:18.805Z,87.10
2017-11-27T15:45:17.826Z,86.53
2017-11-27T15:47:17.243Z,87.10
2017-11-27T15:48:15.826Z,86.53
2017-11-27T15:50:14.280Z,87.19
2017-11-27T15:51:13.810Z,87.01
2017-11-27T15:53:11.773Z,86.91
2017-11-27T15:54:11.743Z,85.86
2017-11-27T15:56:10.683Z,85.77
2017-11-27T15:57:10.159Z,86.15
2017-11-27T15:59:07.639Z,86.53
2017-11-27T16:00:07.603Z,86.63
2017-11-27T16:02:07.050Z,86.24
2017-11-27T16:03:06.581Z,85.77
2017-11-27T16:05:03.596Z,85.58
2017-11-27T16:06:04.065Z,85.68
2017-11-27T16:08:02.984Z,85.86
2017-11-27T16:09:01.700Z,85.96
2017-11-27T16:11:00.639Z,85.86
2017-11-27T16:12:00.145Z,85.96
2017-11-27T16:13:59.066Z,85.11
2017-11-27T16:14:57.553Z,85.49
2017-11-27T16:16:56.537Z,85.96
2017-11-27T16:17:55.483Z,86.05
2017-11-27T16:19:53.951Z,84.82
2017-11-27T16:20:53.932Z,84.72
2017-11-27T16:22:51.468Z,85.20
2017-11-27T16:23:51.331Z,85.11
2017-11-27T16:25:49.285Z,85.20
2017-11-27T16:26:49.241Z,85.58
2017-11-27T16:28:47.244Z,85.11
2017-11-27T16:29:47.717Z,85.77
2017-11-27T16:31:45.645Z,85.77
2017-11-27T16:32:46.623Z,85.49
2017-11-27T16:34:45.592Z,85.96
2017-11-27T16:35:45.563Z,85.58
2017-11-27T16:37:43.546Z,85.30
2017-11-27T16:38:43.532Z,85.86
2017-11-27T16:40:41.981Z,86.34
2017-11-27T16:41:42.009Z,86.53
2017-11-27T16:43:37.412Z,86.34
2017-11-27T16:44:37.391Z,86.53
2017-11-27T16:46:34.367Z,87.38
2017-11-27T16:47:33.324Z,86.72
2017-11-27T16:49:31.776Z,87.57
2017-11-27T16:50:31.771Z,87.10
2017-11-27T16:52:29.757Z,87.38
2017-11-27T16:53:29.689Z,87.38
2017-11-27T16:55:28.125Z,87.01
2017-11-27T16:56:27.081Z,87.38
2017-11-27T16:58:25.049Z,86.72
2017-11-27T16:59:25.022Z,87.67
2017-11-27T17:01:24.012Z,87.29
2017-11-27T17:02:22.979Z,87.29
2017-11-27T17:04:24.918Z,87.29
2017-11-27T17:05:21.420Z,87.48
2017-11-27T17:07:19.851Z,87.57
2017-11-27T17:08:19.344Z,87.67
2017-11-27T17:10:18.284Z,87.57
2017-11-27T17:11:17.702Z,87.38
2017-11-27T17:13:15.847Z,87.29
2017-11-27T17:14:14.821Z,87.38
2017-11-27T17:16:13.769Z,87.29
2017-11-27T17:17:12.765Z,87.48
2017-11-27T17:19:09.242Z,88.05
2017-11-27T17:20:08.717Z,87.19
2017-11-27T17:22:05.166Z,87.10
2017-11-27T17:23:05.648Z,87.48
2017-11-27T17:25:03.156Z,87.38
2017-11-27T17:26:02.645Z,87.29
2017-11-27T17:28:01.580Z,87.29
2017-11-27T17:29:00.554Z,87.57
2017-11-27T17:30:57.520Z,87.48
2017-11-27T17:31:56.533Z,86.72
2017-11-27T17:33:52.466Z,87.29
2017-11-27T17:34:52.437Z,87.29
2017-11-27T17:36:50.953Z,87.19
2017-11-27T17:37:50.888Z,87.38
2017-11-27T17:39:49.326Z,86.91
2017-11-27T17:40:48.849Z,87.01
2017-11-27T17:42:47.267Z,86.72
2017-11-27T17:43:46.792Z,86.72
2017-11-27T17:45:42.687Z,86.53
2017-11-27T17:46:42.176Z,86.63
2017-11-27T17:48:38.629Z,86.82
2017-11-27T17:49:38.100Z,86.34
2017-11-27T17:51:38.555Z,87.29
2017-11-27T17:52:38.524Z,87.01
2017-11-27T17:54:35.468Z,87.19
2017-11-27T17:55:34.463Z,87.19
2017-11-27T17:57:30.906Z,86.34
2017-11-27T17:58:30.391Z,86.53
2017-11-27T18:00:26.403Z,86.72
2017-11-27T18:01:26.336Z,86.82
2017-11-27T18:03:25.316Z,85.58
2017-11-27T18:04:24.282Z,85.68
2017-11-27T18:06:20.229Z,86.63
2017-11-27T18:07:20.201Z,86.63
2017-11-27T18:09:18.238Z,86.10
2017-11-27T18:10:19.150Z,85.62
2017-11-27T18:12:16.184Z,86.10
2017-11-27T18:13:16.713Z,86.67
2017-11-27T18:15:15.634Z,86.10
2017-11-27T18:16:14.083Z,85.72
2017-11-27T18:18:15.572Z,85.72
2017-11-27T18:19:12.242Z,86.47
2017-11-27T18:21:08.195Z,86.57
2017-11-27T18:22:08.141Z,86.19
2017-11-27T18:24:08.494Z,86.19
2017-11-27T18:25:08.502Z,85.81
2017-11-27T18:27:05.004Z,86.47
2017-11-27T18:28:04.523Z,86.19
2017-11-27T18:30:04.950Z,86.57
2017-11-27T18:31:04.438Z,86.19
2017-11-27T18:33:00.406Z,86.10
2017-11-27T18:34:00.351Z,86.95
2017-11-27T18:35:56.328Z,86.57
2017-11-27T18:36:56.278Z,86.67
2017-11-27T18:38:52.772Z,87.34
2017-11-27T18:39:52.234Z,87.05
2017-11-27T18:41:49.670Z,87.43
2017-11-27T18:42:48.154Z,87.62
2017-11-27T18:44:46.638Z,86.95
2017-11-27T18:45:46.615Z,86.86
2017-11-27T18:47:44.593Z,87.43
2017-11-27T18:48:44.115Z,87.24
2017-11-27T18:50:40.049Z,87.71
2017-11-27T18:51:40.545Z,87.34
2017-11-27T18:53:38.070Z,87.14
2017-11-27T18:54:38.946Z,87.34
2017-11-27T18:56:38.536Z,87.52
2017-11-27T18:57:39.002Z,87.43
2017-11-27T18:59:38.349Z,88.28
2017-11-27T19:00:36.902Z,88.28